Weather reports worldwide

Advertisment
Siracusa, Italy (16464): temperature & dewpoint: 19.01.2017 02:00:00 - 25.01.2017 02:00:00 (CET)Siracusa, Italy (16464): wind speed: 19.01.2017 02:00:00 - 25.01.2017 02:00:00 (CET)Siracusa, Italy (16464): wind direction: 19.01.2017 02:00:00 - 25.01.2017 02:00:00 (CET)Siracusa, Italy (16464): reduced air pressure: 19.01.2017 02:00:00 - 25.01.2017 02:00:00 (CET)Siracusa, Italy (16464): precipitation: 19.01.2017 02:00:00 - 25.01.2017 02:00:00 (CET)
Date & Time tt [°C] td [°C] ff [km/h] ff [kn] dd ppp [hPa] rr [mm]
25.01.2017 02:00:00 - - - - - - -
25.01.2017 01:00:00 7,8 4,7 5 3 WNW 1013,4 0,0
25.01.2017 00:00:00 8,5 5,0 4 2 NW 1013,4 -
24.01.2017 23:00:00 11,3 8,5 5 3 NNW 1013,3 -
24.01.2017 22:00:00 9,0 6,1 5 3 NW 1013,0 -
24.01.2017 21:00:00 9,8 6,7 4 2 NW 1012,4 -
24.01.2017 20:00:00 10,6 6,9 5 3 NW 1012,0 -
24.01.2017 19:00:00 11,5 7,9 0 0 N 1011,6 0,0
24.01.2017 18:00:00 11,7 7,2 5 3 W 1011,2 -
24.01.2017 17:00:00 13,5 7,9 8 4 W 1010,5 -
24.01.2017 16:00:00 14,5 7,5 18 10 SSW 1009,8 -
24.01.2017 15:00:00 15,8 7,5 16 9 SSW 1009,6 -
24.01.2017 14:00:00 14,9 7,1 15 8 SSW 1009,8 -
24.01.2017 13:00:00 15,6 8,5 4 2 ESE 1010,3 0,0
24.01.2017 12:00:00 15,2 6,9 5 3 SE 1011,4 -
24.01.2017 11:00:00 15,2 6,9 4 2 S 1012,1 -
24.01.2017 10:00:00 12,9 7,9 4 2 NW 1012,2 -
24.01.2017 09:00:00 7,6 4,7 5 3 WNW 1011,8 -
24.01.2017 08:00:00 4,8 1,2 4 2 NW 1011,4 -
24.01.2017 07:00:00 4,8 0,9 5 3 WNW 1011,2 0,0
24.01.2017 06:00:00 5,3 1,7 5 3 NW 1011,0 -
24.01.2017 05:00:00 6,5 3,6 4 2 WSW 1010,8 -
24.01.2017 04:00:00 6,9 4,0 9 5 WNW 1011,4 -
24.01.2017 03:00:00 7,1 4,2 4 2 WNW 1012,0 -
24.01.2017 02:00:00 7,8 4,7 4 2 WNW 1012,0 -
24.01.2017 01:00:00 9,0 5,9 5 3 WNW 1012,3 0,0
24.01.2017 00:00:00 10,7 7,5 2 1 WNW 1012,6 -
23.01.2017 23:00:00 11,6 8,6 5 3 NW 1012,7 -
23.01.2017 22:00:00 11,9 8,9 11 6 NW 1012,5 -
23.01.2017 21:00:00 12,2 9,2 15 8 NNW 1012,1 -
23.01.2017 20:00:00 12,2 9,2 16 9 N 1012,0 -
23.01.2017 19:00:00 12,5 9,5 13 7 NNW 1011,8 0,0
23.01.2017 18:00:00 12,9 9,7 18 10 N 1011,4 -
23.01.2017 17:00:00 13,8 10,2 13 7 N 1011,4 -
23.01.2017 16:00:00 14,1 10,9 13 7 N 1011,3 -
23.01.2017 15:00:00 14,4 10,4 11 6 N 1011,8 -
23.01.2017 14:00:00 15,1 11,6 4 2 ESE 1012,3 -
23.01.2017 13:00:00 13,3 11,2 15 8 N 1012,9 0,0
23.01.2017 12:00:00 13,1 11,3 13 7 N 1013,5 -
23.01.2017 11:00:00 12,6 10,8 11 6 N 1014,0 -
23.01.2017 10:00:00 12,8 11,2 5 3 WSW 1014,4 -
23.01.2017 09:00:00 12,2 10,6 8 4 ESE 1014,5 -
23.01.2017 08:00:00 11,7 9,9 5 3 ENE 1015,0 -
23.01.2017 07:00:00 11,3 9,2 4 2 ESE 1014,8 0,0
23.01.2017 06:00:00 10,5 7,9 4 2 E 1015,3 -
23.01.2017 05:00:00 10,5 7,3 8 4 N 1015,3 -
23.01.2017 04:00:00 12,4 7,0 11 6 WNW 1015,6 -
23.01.2017 03:00:00 14,8 11,3 41 22 SSE 1015,0 -
23.01.2017 02:00:00 14,9 11,4 41 22 SSE 1015,3 -
23.01.2017 01:00:00 15,2 11,7 35 19 SSE 1015,8 0,0
23.01.2017 00:00:00 14,7 11,4 41 22 SSE 1016,2 -
22.01.2017 23:00:00 14,0 12,7 29 16 SE 1016,4 -
22.01.2017 22:00:00 13,3 11,8 34 18 SE 1016,6 -
22.01.2017 21:00:00 13,1 11,3 26 14 ESE 1017,1 -
22.01.2017 20:00:00 13,4 11,3 34 18 SE 1017,5 -
22.01.2017 19:00:00 13,4 11,6 26 14 SE 1017,8 0,0
22.01.2017 18:00:00 13,3 11,0 35 19 SE 1017,7 -
22.01.2017 17:00:00 13,4 11,3 29 16 SE 1017,7 -
22.01.2017 16:00:00 13,6 11,3 35 19 SE 1018,0 -
22.01.2017 15:00:00 14,5 11,1 34 18 SE 1018,1 -
22.01.2017 14:00:00 14,8 11,2 29 16 SE 1018,5 -
22.01.2017 13:00:00 15,4 11,4 28 15 SE 1019,4 0,0
22.01.2017 12:00:00 15,1 11,5 26 14 SE 1020,6 -
22.01.2017 11:00:00 15,3 11,3 28 15 SE 1021,2 -
22.01.2017 10:00:00 15,2 10,8 29 16 SE 1021,2 -
22.01.2017 09:00:00 15,0 10,6 26 14 SE 1020,8 -
22.01.2017 08:00:00 14,6 9,8 31 17 SE 1020,8 -
22.01.2017 07:00:00 14,5 9,7 24 13 SE 1020,8 0,0
22.01.2017 06:00:00 14,3 9,1 24 13 SE 1020,8 -
22.01.2017 05:00:00 14,4 8,9 26 14 SE 1021,0 -
22.01.2017 04:00:00 14,5 9,0 26 14 SE 1021,7 -
22.01.2017 03:00:00 14,5 9,0 28 15 SSE 1022,4 -
22.01.2017 02:00:00 14,5 9,5 26 14 SE 1022,4 -
22.01.2017 01:00:00 14,4 9,4 26 14 SE 1022,6 0,0
22.01.2017 00:00:00 14,5 9,5 22 12 SE 1022,8 -
21.01.2017 23:00:00 14,6 9,6 22 12 SE 1022,7 -
21.01.2017 22:00:00 14,5 9,7 26 14 SE 1022,8 -
21.01.2017 21:00:00 14,7 9,9 26 14 SE 1022,7 -
21.01.2017 20:00:00 14,6 9,8 24 13 SE 1022,7 -
21.01.2017 19:00:00 14,8 10,2 28 15 SE 1022,4 0,0
21.01.2017 18:00:00 14,8 9,8 28 15 SE 1021,8 -
21.01.2017 17:00:00 15,0 10,2 24 13 SE 1021,7 -
21.01.2017 16:00:00 15,3 10,2 22 12 SE 1021,6 -
21.01.2017 15:00:00 15,5 10,2 24 13 SE 1021,6 -
21.01.2017 14:00:00 15,8 10,5 24 13 SE 1021,8 -
21.01.2017 13:00:00 15,8 10,1 26 14 SE 1022,4 0,0
21.01.2017 12:00:00 16,0 10,3 28 15 SE 1023,2 -
21.01.2017 11:00:00 15,9 10,0 28 15 SE 1024,0 -
21.01.2017 10:00:00 15,4 9,7 28 15 SE 1024,0 -
21.01.2017 09:00:00 15,0 9,1 24 13 SE 1023,5 -
21.01.2017 08:00:00 14,5 9,5 18 10 SE 1023,3 -
21.01.2017 07:00:00 14,4 8,9 21 11 SE 1023,4 0,0
21.01.2017 06:00:00 14,3 8,9 18 10 SE 1023,1 -
21.01.2017 05:00:00 14,4 9,8 18 10 SE 1023,2 -
21.01.2017 04:00:00 14,3 9,9 15 8 ESE 1023,6 -
21.01.2017 03:00:00 14,3 9,5 15 8 ESE 1024,0 -
21.01.2017 02:00:00 14,5 9,3 13 7 ESE 1024,2 -
21.01.2017 01:00:00 14,5 9,0 11 6 ESE 1024,6 0,0
21.01.2017 00:00:00 14,6 8,9 15 8 ESE 1025,1 -
20.01.2017 23:00:00 14,6 8,7 13 7 ESE 1025,4 -
20.01.2017 22:00:00 14,7 7,4 15 8 ESE 1025,4 -
20.01.2017 21:00:00 14,5 7,2 15 8 ESE 1025,2 -
20.01.2017 20:00:00 14,3 6,3 13 7 ESE 1025,1 -
20.01.2017 19:00:00 14,2 6,0 15 8 ESE 1025,1 0,0
20.01.2017 18:00:00 14,3 6,1 11 6 ESE 1024,9 -
20.01.2017 17:00:00 14,6 6,4 13 7 ESE 1024,8 -
20.01.2017 16:00:00 15,3 7,3 11 6 ESE 1024,6 -
20.01.2017 15:00:00 15,7 7,9 11 6 ESE 1024,6 -
20.01.2017 14:00:00 15,7 8,1 9 5 ESE 1024,8 -
20.01.2017 13:00:00 15,7 7,9 11 6 ESE 1025,1 0,0
20.01.2017 12:00:00 15,5 7,2 11 6 ESE 1025,8 -
20.01.2017 11:00:00 14,8 8,2 9 5 ESE 1026,3 -
20.01.2017 10:00:00 12,3 7,7 5 3 N 1026,2 -
20.01.2017 09:00:00 9,8 6,7 5 3 NNW 1025,4 -
20.01.2017 08:00:00 8,3 5,5 5 3 N 1025,5 -
20.01.2017 07:00:00 5,0 1,1 4 2 NNW 1025,5 0,0
20.01.2017 06:00:00 6,0 1,8 2 1 W 1025,1 -
20.01.2017 05:00:00 7,1 2,3 2 1 W 1024,8 -
20.01.2017 04:00:00 8,9 3,7 4 2 W 1024,9 -
20.01.2017 03:00:00 10,3 7,9 9 5 N 1024,8 -
20.01.2017 02:00:00 5,0 1,4 4 2 WNW 1024,5 -
20.01.2017 01:00:00 4,9 1,2 5 3 WNW 1024,2 0,0
20.01.2017 00:00:00 5,1 1,0 4 2 W 1024,3 -
19.01.2017 23:00:00 5,7 1,4 4 2 W 1024,3 -
19.01.2017 22:00:00 6,3 1,6 4 2 NW 1024,1 -
19.01.2017 21:00:00 7,2 2,4 2 1 NW 1023,7 -
19.01.2017 20:00:00 8,2 2,4 4 2 WNW 1023,3 -
19.01.2017 19:00:00 10,6 4,2 4 2 WNW 1022,8 0,0
19.01.2017 18:00:00 13,2 5,8 4 2 E 1022,0 -
19.01.2017 17:00:00 13,7 5,5 5 3 ENE 1021,4 -
19.01.2017 16:00:00 14,6 5,6 8 4 ENE 1020,9 -
19.01.2017 15:00:00 14,5 4,7 9 5 N 1020,6 -
19.01.2017 14:00:00 16,0 6,3 5 3 N 1020,5 -
19.01.2017 13:00:00 14,1 6,1 9 5 NE 1020,6 0,0
19.01.2017 12:00:00 14,9 4,5 13 7 WSW 1020,9 -
19.01.2017 11:00:00 13,2 6,2 8 4 ESE 1021,2 -
19.01.2017 10:00:00 10,0 5,5 4 2 NE 1021,0 -
19.01.2017 09:00:00 7,2 4,1 0 0 N 1020,5 -
19.01.2017 08:00:00 4,6 0,9 8 4 W 1019,6 -
19.01.2017 07:00:00 4,5 -0,2 5 3 WNW 1019,1 0,0
19.01.2017 06:00:00 5,7 1,7 5 3 N 1018,4 -
19.01.2017 05:00:00 6,4 2,0 4 2 WNW 1017,6 -
19.01.2017 04:00:00 6,8 1,8 8 4 W 1017,4 -
19.01.2017 03:00:00 6,9 1,7 8 4 NW 1017,0 -
19.01.2017 02:00:00 8,0 2,2 2 1 W 1016,2 -

tt = temperature
td = dewpoint
ff = wind speed
dd = wind direction
ppp = reduced air pressure
rr = precipitation

Next stations